createdAt,value
2022-11-29T00:01:31.693Z,94471.97
2022-11-29T00:03:57.939Z,94472.44
2022-11-29T00:06:24.238Z,94470.28
2022-11-29T00:08:50.471Z,94465.72
2022-11-29T00:11:16.699Z,94462.28
2022-11-29T00:13:42.934Z,94469.47
2022-11-29T00:16:09.229Z,94461.63
2022-11-29T00:18:35.519Z,94463.41
2022-11-29T00:21:01.886Z,94459.81
2022-11-29T00:23:28.123Z,94446.88
2022-11-29T00:25:54.368Z,94445.59
2022-11-29T00:28:20.617Z,94446.41
2022-11-29T00:30:46.888Z,94444.44
2022-11-29T00:33:13.152Z,94451.66
2022-11-29T00:35:39.393Z,94444.44
2022-11-29T00:38:05.619Z,94449.69
2022-11-29T00:40:31.869Z,94436.41
2022-11-29T00:42:58.116Z,94442.47
2022-11-29T00:45:24.349Z,94437.22
2022-11-29T00:47:50.581Z,94442.34
2022-11-29T00:50:16.806Z,94441.84
2022-11-29T00:52:43.060Z,94434.94
2022-11-29T00:55:09.303Z,94433.63
2022-11-29T00:57:35.530Z,94440.84
2022-11-29T01:00:01.777Z,94442.16
2022-11-29T01:02:28.084Z,94427.56
2022-11-29T01:04:54.338Z,94435.13
2022-11-29T01:07:20.640Z,94442.16
2022-11-29T01:09:47.047Z,94439.22
2022-11-29T01:12:13.281Z,94440.84
2022-11-29T01:14:39.509Z,94447.25
2022-11-29T01:17:05.896Z,94434.97
2022-11-29T01:19:32.152Z,94444.81
2022-11-29T01:21:58.437Z,94442.81
2022-11-29T01:24:24.689Z,94438.06
2022-11-29T01:26:50.932Z,94439.88
2022-11-29T01:29:17.167Z,94442.19
2022-11-29T01:31:43.394Z,94446.44
2022-11-29T01:34:09.671Z,94449.22
2022-11-29T01:36:35.932Z,94444.97
2022-11-29T01:39:02.185Z,94449.56
2022-11-29T01:41:28.421Z,94448.06
2022-11-29T01:43:54.651Z,94446.47
2022-11-29T01:46:20.948Z,94443.69
2022-11-29T01:48:47.264Z,94448.44
2022-11-29T01:51:13.501Z,94443.03
2022-11-29T01:53:39.749Z,94441.72
2022-11-29T01:56:06.028Z,94437.97
2022-11-29T01:58:32.316Z,94440.25
2022-11-29T02:00:58.597Z,94434.84
2022-11-29T02:03:24.865Z,94438.44
2022-11-29T02:05:51.095Z,94434.03
2022-11-29T02:08:17.337Z,94430.59
2022-11-29T02:10:43.594Z,94435.00
2022-11-29T02:13:09.874Z,94427.81
2022-11-29T02:15:36.149Z,94423.22
2022-11-29T02:18:02.441Z,94426.34
2022-11-29T02:20:28.700Z,94427.16
2022-11-29T02:22:54.946Z,94422.75
2022-11-29T02:25:21.188Z,94420.47
2022-11-29T02:27:47.417Z,94417.50
2022-11-29T02:30:13.660Z,94425.69
2022-11-29T02:32:39.897Z,94415.22
2022-11-29T02:35:06.131Z,94419.13
2022-11-29T02:37:32.394Z,94430.41
2022-11-29T02:39:58.632Z,94425.84
2022-11-29T02:42:24.864Z,94426.34
2022-11-29T02:44:51.119Z,94422.91
2022-11-29T02:47:17.354Z,94427.16
2022-11-29T02:49:43.609Z,94440.59
2022-11-29T02:52:09.854Z,94430.75
2022-11-29T02:54:36.090Z,94432.75
2022-11-29T02:57:02.345Z,94424.88
2022-11-29T02:59:28.573Z,94429.44
2022-11-29T03:01:54.855Z,94435.34
2022-11-29T03:04:21.110Z,94428.31
2022-11-29T03:06:47.370Z,94428.63
2022-11-29T03:09:13.604Z,94435.34
2022-11-29T03:11:39.838Z,94436.31
2022-11-29T03:14:06.065Z,94434.03
2022-11-29T03:16:32.295Z,94434.38
2022-11-29T03:18:58.547Z,94429.63
2022-11-29T03:21:24.775Z,94429.44
2022-11-29T03:23:51.006Z,94426.53
2022-11-29T03:26:17.239Z,94430.25
2022-11-29T03:28:43.468Z,94431.75
2022-11-29T03:31:09.710Z,94431.91
2022-11-29T03:33:35.957Z,94429.44
2022-11-29T03:36:02.201Z,94431.75
2022-11-29T03:38:28.488Z,94427.16
2022-11-29T03:40:54.729Z,94435.66
2022-11-29T03:43:20.961Z,94430.25
2022-11-29T03:45:47.185Z,94428.44
2022-11-29T03:48:13.419Z,94429.31
2022-11-29T03:50:39.645Z,94436.16
2022-11-29T03:53:05.893Z,94429.59
2022-11-29T03:55:32.135Z,94434.84
2022-11-29T03:57:58.358Z,94433.56
2022-11-29T04:00:24.612Z,94432.56
2022-11-29T04:02:50.868Z,94433.22
2022-11-29T04:05:17.190Z,94433.56
2022-11-29T04:07:43.470Z,94432.75
2022-11-29T04:10:09.746Z,94425.84
2022-11-29T04:12:36.005Z,94427.63
2022-11-29T04:15:02.298Z,94429.44
2022-11-29T04:17:28.549Z,94441.53
2022-11-29T04:19:54.806Z,94435.00
2022-11-29T04:22:21.062Z,94430.25
2022-11-29T04:24:47.479Z,94439.91
2022-11-29T04:27:13.809Z,94439.25
2022-11-29T04:29:40.061Z,94453.34
2022-11-29T04:32:06.297Z,94447.75
2022-11-29T04:34:32.547Z,94445.00
2022-11-29T04:36:58.809Z,94449.72
2022-11-29T04:39:25.037Z,94455.47
2022-11-29T04:41:51.289Z,94453.00
2022-11-29T04:44:17.541Z,94456.28
2022-11-29T04:46:43.871Z,94453.69
2022-11-29T04:49:10.156Z,94456.59
2022-11-29T04:51:36.480Z,94450.56
2022-11-29T04:54:02.725Z,94457.09
2022-11-29T04:56:28.970Z,94458.41
2022-11-29T04:58:55.217Z,94459.56
2022-11-29T05:01:21.504Z,94460.53
2022-11-29T05:03:51.240Z,94455.31
2022-11-29T05:06:20.160Z,94466.06
2022-11-29T05:08:46.411Z,94466.06
2022-11-29T05:11:12.644Z,94469.03
2022-11-29T05:13:38.877Z,94464.78
2022-11-29T05:16:05.170Z,94466.75
2022-11-29T05:18:31.461Z,94468.84
2022-11-29T05:20:57.712Z,94472.13
2022-11-29T05:23:23.946Z,94470.84
2022-11-29T05:25:50.172Z,94463.97
2022-11-29T05:28:16.417Z,94468.69
2022-11-29T05:30:42.694Z,94469.03
2022-11-29T05:33:08.940Z,94474.28
2022-11-29T05:35:35.184Z,94470.84
2022-11-29T05:38:01.418Z,94468.88
2022-11-29T05:40:27.670Z,94472.94
2022-11-29T05:42:53.927Z,94476.25
2022-11-29T05:45:20.175Z,94474.28
2022-11-29T05:47:46.530Z,94473.63
2022-11-29T05:50:12.777Z,94485.56
2022-11-29T05:52:39.028Z,94492.25
2022-11-29T05:55:05.281Z,94484.91
2022-11-29T05:57:31.544Z,94496.38
2022-11-29T05:59:57.783Z,94489.97
2022-11-29T06:02:24.060Z,94495.22
2022-11-29T06:04:50.353Z,94494.22
2022-11-29T06:07:16.597Z,94493.09
2022-11-29T06:09:42.867Z,94489.81
2022-11-29T06:12:09.144Z,94489.34
2022-11-29T06:14:35.407Z,94494.25
2022-11-29T06:17:01.633Z,94493.09
2022-11-29T06:19:27.864Z,94488.84
2022-11-29T06:21:54.132Z,94494.06
2022-11-29T06:24:25.540Z,94499.31
2022-11-29T06:26:52.274Z,94499.97
2022-11-29T06:29:18.528Z,94499.13
2022-11-29T06:31:44.804Z,94506.69
2022-11-29T06:34:11.111Z,94505.69
2022-11-29T06:36:37.347Z,94513.56
2022-11-29T06:39:03.599Z,94500.47
2022-11-29T06:41:29.933Z,94516.16
2022-11-29T06:43:56.173Z,94518.97
2022-11-29T06:46:22.516Z,94510.75
2022-11-29T06:48:48.800Z,94513.72
2022-11-29T06:51:15.045Z,94513.56
2022-11-29T06:53:41.297Z,94525.66
2022-11-29T06:56:07.537Z,94530.56
2022-11-29T06:58:36.266Z,94527.63
2022-11-29T07:01:02.755Z,94532.38
2022-11-29T07:03:29.061Z,94532.22
2022-11-29T07:05:55.295Z,94526.16
2022-11-29T07:08:21.538Z,94528.44
2022-11-29T07:10:47.791Z,94536.31
2022-11-29T07:13:14.043Z,94533.50
2022-11-29T07:15:40.298Z,94537.47
2022-11-29T07:18:06.545Z,94546.94
2022-11-29T07:20:32.793Z,94546.13
2022-11-29T07:23:00.119Z,94536.94
2022-11-29T07:25:26.353Z,94540.56
2022-11-29T07:27:52.589Z,94532.22
2022-11-29T07:30:18.873Z,94542.19
2022-11-29T07:32:50.360Z,94532.69
2022-11-29T07:35:17.637Z,94538.91
2022-11-29T07:37:43.908Z,94542.84
2022-11-29T07:40:10.160Z,94539.72
2022-11-29T07:42:36.390Z,94543.81
2022-11-29T07:45:02.638Z,94543.63
2022-11-29T07:47:32.683Z,94544.16
2022-11-29T07:50:01.887Z,94552.50
2022-11-29T07:52:28.113Z,94557.25
2022-11-29T07:54:54.341Z,94553.97
2022-11-29T07:57:20.596Z,94557.91
2022-11-29T07:59:47.093Z,94557.09
2022-11-29T08:02:13.537Z,94553.81
2022-11-29T08:04:39.819Z,94550.03
2022-11-29T08:07:06.066Z,94556.91
2022-11-29T08:09:32.305Z,94557.91
2022-11-29T08:11:58.564Z,94558.41
2022-11-29T08:14:24.813Z,94561.03
2022-11-29T08:16:51.094Z,94560.69
2022-11-29T08:19:17.389Z,94560.50
2022-11-29T08:21:43.624Z,94562.81
2022-11-29T08:24:09.869Z,94558.06
2022-11-29T08:26:36.105Z,94566.75
2022-11-29T08:29:02.335Z,94564.94
2022-11-29T08:31:28.601Z,94567.91
2022-11-29T08:33:54.893Z,94564.28
2022-11-29T08:36:21.127Z,94571.63
2022-11-29T08:38:47.376Z,94573.78
2022-11-29T08:41:13.627Z,94578.03
2022-11-29T08:43:39.985Z,94575.25
2022-11-29T08:46:06.249Z,94571.50
2022-11-29T08:48:32.491Z,94569.72
2022-11-29T08:50:58.734Z,94571.34
2022-11-29T08:53:24.959Z,94581.81
2022-11-29T08:55:51.192Z,94584.91
2022-11-29T08:58:17.421Z,94591.31
2022-11-29T09:00:43.693Z,94586.41
2022-11-29T09:03:09.943Z,94589.84
2022-11-29T09:05:36.195Z,94587.88
2022-11-29T09:08:02.467Z,94592.50
2022-11-29T09:10:28.728Z,94598.22
2022-11-29T09:12:54.982Z,94593.31
2022-11-29T09:15:21.224Z,94595.44
2022-11-29T09:17:47.462Z,94593.44
2022-11-29T09:20:13.708Z,94600.50
2022-11-29T09:22:39.939Z,94599.53
2022-11-29T09:25:06.176Z,94604.09
2022-11-29T09:27:32.404Z,94601.00
2022-11-29T09:29:58.657Z,94600.00
2022-11-29T09:32:24.916Z,94607.88
2022-11-29T09:34:51.152Z,94601.81
2022-11-29T09:37:17.416Z,94605.72
2022-11-29T09:39:43.672Z,94607.88
2022-11-29T09:42:09.932Z,94600.31
2022-11-29T09:44:36.168Z,94605.41
2022-11-29T09:47:02.412Z,94609.66
2022-11-29T09:49:28.675Z,94607.22
2022-11-29T09:51:54.921Z,94610.47
2022-11-29T09:54:21.171Z,94608.03
2022-11-29T09:56:47.425Z,94606.22
2022-11-29T09:59:13.693Z,94613.09
2022-11-29T10:01:40.017Z,94603.09
2022-11-29T10:04:06.286Z,94604.59
2022-11-29T10:06:32.545Z,94601.78
2022-11-29T10:08:58.796Z,94605.56
2022-11-29T10:11:25.049Z,94602.91
2022-11-29T10:13:51.394Z,94601.13
2022-11-29T10:16:17.660Z,94604.06
2022-11-29T10:18:43.946Z,94607.34
2022-11-29T10:21:10.258Z,94608.47
2022-11-29T10:23:36.602Z,94603.84
2022-11-29T10:26:02.874Z,94607.16
2022-11-29T10:28:29.112Z,94608.41
2022-11-29T10:30:55.402Z,94609.59
2022-11-29T10:33:21.669Z,94607.94
2022-11-29T10:35:47.910Z,94607.44
2022-11-29T10:38:30.152Z,94602.19
2022-11-29T10:40:56.879Z,94603.16
2022-11-29T10:43:23.117Z,94604.78
2022-11-29T10:45:50.166Z,94598.25
2022-11-29T10:48:16.675Z,94599.56
2022-11-29T10:50:42.909Z,94600.66
2022-11-29T10:53:09.152Z,94593.78
2022-11-29T10:55:35.396Z,94597.22
2022-11-29T10:58:01.653Z,94606.88
2022-11-29T11:00:27.893Z,94598.50
2022-11-29T11:02:54.137Z,94591.50
2022-11-29T11:05:20.397Z,94594.69
2022-11-29T11:07:46.671Z,94591.75
2022-11-29T11:10:12.942Z,94591.44
2022-11-29T11:12:39.177Z,94591.13
2022-11-29T11:15:05.427Z,94594.94
2022-11-29T11:17:31.694Z,94591.91
2022-11-29T11:19:57.949Z,94591.94
2022-11-29T11:22:24.214Z,94588.72
2022-11-29T11:24:50.450Z,94585.06
2022-11-29T11:27:16.685Z,94581.63
2022-11-29T11:29:42.937Z,94582.63
2022-11-29T11:32:09.191Z,94588.19
2022-11-29T11:34:35.496Z,94590.19
2022-11-29T11:37:01.753Z,94587.38
2022-11-29T11:39:28.013Z,94582.44
2022-11-29T11:41:54.270Z,94580.81
2022-11-29T11:44:45.659Z,94586.53
2022-11-29T11:47:06.718Z,94591.28
2022-11-29T11:49:32.976Z,94576.66
2022-11-29T11:51:59.207Z,94581.94
2022-11-29T11:54:25.458Z,94588.53
2022-11-29T11:56:51.685Z,94585.25
2022-11-29T11:59:17.920Z,94587.84
2022-11-29T12:01:44.158Z,94590.50
2022-11-29T12:04:10.417Z,94590.59
2022-11-29T12:06:36.654Z,94594.22
2022-11-29T12:09:02.890Z,94595.53
2022-11-29T12:11:29.134Z,94592.88
2022-11-29T12:13:55.388Z,94594.91
2022-11-29T12:16:21.643Z,94597.13
2022-11-29T12:18:47.902Z,94595.78
2022-11-29T12:21:14.160Z,94595.34
2022-11-29T12:23:40.416Z,94603.94
2022-11-29T12:26:06.703Z,94599.00
2022-11-29T12:28:32.981Z,94595.81
2022-11-29T12:30:59.314Z,94599.75
2022-11-29T12:33:25.602Z,94591.84
2022-11-29T12:35:51.844Z,94600.66
2022-11-29T12:38:18.100Z,94590.13
2022-11-29T12:40:44.342Z,94590.31
2022-11-29T12:43:10.606Z,94596.06
2022-11-29T12:45:36.851Z,94594.56
2022-11-29T12:48:03.114Z,94598.94
2022-11-29T12:50:29.368Z,94601.56
2022-11-29T12:52:55.646Z,94597.16
2022-11-29T12:55:21.906Z,94601.09
2022-11-29T12:57:48.169Z,94599.63
2022-11-29T13:00:16.225Z,94598.09
2022-11-29T13:02:42.489Z,94604.28
2022-11-29T13:05:08.870Z,94597.78
2022-11-29T13:07:35.155Z,94599.22
2022-11-29T13:10:01.449Z,94598.53
2022-11-29T13:12:27.735Z,94602.53
2022-11-29T13:14:53.969Z,94591.53
2022-11-29T13:17:20.220Z,94595.28
2022-11-29T13:19:46.464Z,94595.97
2022-11-29T13:22:12.713Z,94592.34
2022-11-29T13:24:42.789Z,94596.78
2022-11-29T13:27:09.389Z,94593.84
2022-11-29T13:29:35.622Z,94587.19
2022-11-29T13:32:01.865Z,94588.28
2022-11-29T13:34:28.121Z,94594.19
2022-11-29T13:36:54.355Z,94595.28
2022-11-29T13:39:20.586Z,94602.03
2022-11-29T13:41:46.834Z,94603.22
2022-11-29T13:44:13.068Z,94599.28
2022-11-29T13:46:39.356Z,94597.19
2022-11-29T13:49:05.626Z,94605.06
2022-11-29T13:51:31.853Z,94602.09
2022-11-29T13:53:58.097Z,94603.25
2022-11-29T13:56:24.333Z,94601.91
2022-11-29T13:58:50.669Z,94606.28
2022-11-29T14:01:17.023Z,94600.59
2022-11-29T14:03:43.318Z,94609.16
2022-11-29T14:06:09.676Z,94608.97
2022-11-29T14:09:02.466Z,94608.78
2022-11-29T14:11:22.149Z,94611.31
2022-11-29T14:13:48.482Z,94617.38
2022-11-29T14:16:14.752Z,94611.94
2022-11-29T14:18:41.037Z,94605.53
2022-11-29T14:21:07.290Z,94612.59
2022-11-29T14:23:33.522Z,94612.66
2022-11-29T14:25:59.772Z,94614.66
2022-11-29T14:28:26.022Z,94611.00
2022-11-29T14:30:52.422Z,94609.06
2022-11-29T14:33:18.753Z,94612.03
2022-11-29T14:35:45.000Z,94616.13
2022-11-29T14:38:11.252Z,94606.97
2022-11-29T14:40:37.509Z,94611.06
2022-11-29T14:43:03.745Z,94607.13
2022-11-29T14:45:29.978Z,94612.09
2022-11-29T14:47:56.270Z,94614.09
2022-11-29T14:50:22.537Z,94620.31
2022-11-29T14:52:48.793Z,94622.06
2022-11-29T14:55:15.021Z,94624.75
2022-11-29T14:57:41.249Z,94617.75
2022-11-29T15:00:07.507Z,94619.88
2022-11-29T15:02:33.834Z,94615.94
2022-11-29T15:05:00.114Z,94618.06
2022-11-29T15:07:26.391Z,94619.38
2022-11-29T15:09:52.661Z,94619.72
2022-11-29T15:12:18.897Z,94619.56
2022-11-29T15:14:45.580Z,94629.41
2022-11-29T15:17:12.102Z,94626.94
2022-11-29T15:19:38.341Z,94624.53
2022-11-29T15:22:04.592Z,94629.13
2022-11-29T15:24:30.841Z,94632.72
2022-11-29T15:26:57.078Z,94625.84
2022-11-29T15:29:23.336Z,94624.84
2022-11-29T15:31:49.619Z,94618.81
2022-11-29T15:34:17.353Z,94626.38
2022-11-29T15:36:43.787Z,94628.81
2022-11-29T15:39:10.025Z,94633.91
2022-11-29T15:41:36.283Z,94636.22
2022-11-29T15:44:02.533Z,94633.06
2022-11-29T15:46:28.796Z,94653.56
2022-11-29T15:48:55.030Z,94647.19
2022-11-29T15:51:21.280Z,94652.44
2022-11-29T15:53:47.529Z,94645.56
2022-11-29T15:56:13.775Z,94647.53
2022-11-29T15:58:40.018Z,94651.09
2022-11-29T16:01:06.299Z,94646.03
2022-11-29T16:03:32.698Z,94646.38
2022-11-29T16:05:58.930Z,94648.00
2022-11-29T16:08:25.181Z,94647.19
2022-11-29T16:10:51.422Z,94649.00
2022-11-29T16:13:17.665Z,94661.59
2022-11-29T16:15:43.894Z,94662.91
2022-11-29T16:18:10.142Z,94668.13
2022-11-29T16:20:36.388Z,94659.59
2022-11-29T16:23:02.644Z,94655.81
2022-11-29T16:25:31.127Z,94658.25
2022-11-29T16:28:00.894Z,94657.28
2022-11-29T16:30:27.126Z,94661.53
2022-11-29T16:32:53.364Z,94658.44
2022-11-29T16:35:19.615Z,94657.97
2022-11-29T16:37:45.883Z,94658.44
2022-11-29T16:40:12.159Z,94663.50
2022-11-29T16:42:38.422Z,94667.28
2022-11-29T16:45:04.678Z,94662.88
2022-11-29T16:47:30.959Z,94665.31
2022-11-29T16:49:57.207Z,94645.81
2022-11-29T16:52:23.437Z,94649.13
2022-11-29T16:54:49.675Z,94658.44
2022-11-29T16:57:15.902Z,94662.22
2022-11-29T16:59:42.130Z,94662.44
2022-11-29T17:02:08.383Z,94665.31
2022-11-29T17:04:34.678Z,94668.75
2022-11-29T17:07:00.936Z,94667.59
2022-11-29T17:09:27.198Z,94674.28
2022-11-29T17:11:53.448Z,94665.63
2022-11-29T17:14:19.698Z,94674.59
2022-11-29T17:16:45.979Z,94680.00
2022-11-29T17:19:12.238Z,94675.25
2022-11-29T17:21:38.472Z,94677.09
2022-11-29T17:24:04.706Z,94675.28
2022-11-29T17:26:30.989Z,94679.53
2022-11-29T17:28:57.265Z,94679.34
2022-11-29T17:31:23.558Z,94671.00
2022-11-29T17:33:49.865Z,94674.25
2022-11-29T17:36:16.098Z,94673.59
2022-11-29T17:38:42.346Z,94681.25
2022-11-29T17:41:08.579Z,94681.56
2022-11-29T17:43:34.813Z,94670.97
2022-11-29T17:46:01.090Z,94685.16
2022-11-29T17:48:33.278Z,94682.06
2022-11-29T17:50:59.825Z,94684.84
2022-11-29T17:53:26.086Z,94696.94
2022-11-29T17:55:52.323Z,94691.22
2022-11-29T17:58:18.557Z,94693.22
2022-11-29T18:00:44.806Z,94693.91
2022-11-29T18:03:11.038Z,94686.72
2022-11-29T18:05:37.297Z,94699.00
2022-11-29T18:08:03.607Z,94696.69
2022-11-29T18:10:29.904Z,94696.50
2022-11-29T18:12:56.157Z,94697.16
2022-11-29T18:15:22.406Z,94702.84
2022-11-29T18:17:48.667Z,94709.53
2022-11-29T18:20:14.906Z,94705.59
2022-11-29T18:22:41.161Z,94711.00
2022-11-29T18:25:36.928Z,94711.81
2022-11-29T18:27:53.625Z,94714.25
2022-11-29T18:30:19.885Z,94716.69
2022-11-29T18:32:46.132Z,94711.25
2022-11-29T18:35:12.405Z,94714.56
2022-11-29T18:38:12.925Z,94713.47
2022-11-29T18:40:24.974Z,94719.38
2022-11-29T18:42:51.233Z,94710.69
2022-11-29T18:45:17.472Z,94717.06
2022-11-29T18:47:43.709Z,94718.81
2022-11-29T18:50:09.933Z,94722.06
2022-11-29T18:52:40.595Z,94714.69
2022-11-29T18:55:07.100Z,94716.34
2022-11-29T18:57:33.351Z,94718.00
2022-11-29T18:59:59.590Z,94712.44
2022-11-29T19:02:25.875Z,94708.97
2022-11-29T19:04:52.153Z,94725.16
2022-11-29T19:07:18.464Z,94717.69
2022-11-29T19:09:44.755Z,94716.88
2022-11-29T19:12:11.017Z,94722.59
2022-11-29T19:14:37.258Z,94719.31
2022-11-29T19:17:03.516Z,94725.56
2022-11-29T19:19:29.762Z,94722.78
2022-11-29T19:21:56.004Z,94728.69
2022-11-29T19:24:22.249Z,94720.69
2022-11-29T19:26:48.519Z,94722.97
2022-11-29T19:29:14.779Z,94724.28
2022-11-29T19:31:41.043Z,94721.25
2022-11-29T19:34:07.461Z,94731.38
2022-11-29T19:36:33.695Z,94724.38
2022-11-29T19:38:59.938Z,94721.75
2022-11-29T19:41:26.173Z,94724.72
2022-11-29T19:43:52.406Z,94726.53
2022-11-29T19:46:18.741Z,94725.91
2022-11-29T19:48:45.151Z,94728.06
2022-11-29T19:51:11.391Z,94730.88
2022-11-29T19:53:37.635Z,94725.47
2022-11-29T19:56:03.880Z,94727.44
2022-11-29T19:58:30.130Z,94727.56
2022-11-29T20:00:56.386Z,94719.41
2022-11-29T20:03:22.630Z,94719.88
2022-11-29T20:05:48.866Z,94729.88
2022-11-29T20:08:21.050Z,94729.53
2022-11-29T20:10:47.637Z,94732.34
2022-11-29T20:13:13.889Z,94722.47
2022-11-29T20:15:40.188Z,94725.81
2022-11-29T20:18:06.441Z,94728.06
2022-11-29T20:20:32.757Z,94732.69
2022-11-29T20:22:59.025Z,94726.63
2022-11-29T20:25:25.272Z,94725.00
2022-11-29T20:27:51.513Z,94731.72
2022-11-29T20:30:17.773Z,94728.06
2022-11-29T20:32:44.031Z,94726.81
2022-11-29T20:35:10.260Z,94718.09
2022-11-29T20:37:36.499Z,94725.66
2022-11-29T20:40:02.778Z,94727.09
2022-11-29T20:42:29.151Z,94733.22
2022-11-29T20:44:55.386Z,94738.94
2022-11-29T20:47:21.613Z,94728.63
2022-11-29T20:49:48.174Z,94731.88
2022-11-29T20:52:14.710Z,94736.66
2022-11-29T20:54:40.992Z,94730.25
2022-11-29T20:57:07.242Z,94735.16
2022-11-29T20:59:33.490Z,94728.94
2022-11-29T21:01:59.879Z,94731.41
2022-11-29T21:04:26.141Z,94734.03
2022-11-29T21:06:52.392Z,94733.22
2022-11-29T21:09:18.647Z,94731.88
2022-11-29T21:11:44.896Z,94731.88
2022-11-29T21:14:11.146Z,94726.47
2022-11-29T21:16:37.384Z,94739.91
2022-11-29T21:19:03.636Z,94737.47
2022-11-29T21:21:29.880Z,94733.38
2022-11-29T21:23:56.118Z,94734.03
2022-11-29T21:26:22.368Z,94734.03
2022-11-29T21:28:48.618Z,94728.13
2022-11-29T21:31:14.931Z,94725.66
2022-11-29T21:33:41.205Z,94732.25
2022-11-29T21:36:07.454Z,94734.34
2022-11-29T21:38:33.706Z,94730.59
2022-11-29T21:40:59.952Z,94728.47
2022-11-29T21:43:57.970Z,94725.19
2022-11-29T21:46:12.507Z,94736.00
2022-11-29T21:48:38.777Z,94737.94
2022-11-29T21:51:05.030Z,94730.09
2022-11-29T21:53:31.295Z,94748.94
2022-11-29T21:55:57.629Z,94739.91
2022-11-29T21:58:23.872Z,94737.47
2022-11-29T22:00:50.117Z,94738.63
2022-11-29T22:03:16.354Z,94740.91
2022-11-29T22:05:42.601Z,94736.31
2022-11-29T22:08:08.849Z,94738.47
2022-11-29T22:10:35.097Z,94733.69
2022-11-29T22:13:01.329Z,94729.44
2022-11-29T22:15:27.581Z,94729.75
2022-11-29T22:17:53.833Z,94730.59
2022-11-29T22:20:20.084Z,94729.94
2022-11-29T22:22:46.318Z,94735.50
2022-11-29T22:25:12.552Z,94736.97
2022-11-29T22:27:38.812Z,94729.75
2022-11-29T22:30:05.085Z,94720.78
2022-11-29T22:32:31.333Z,94731.09
2022-11-29T22:34:57.587Z,94734.53
2022-11-29T22:37:23.816Z,94729.75
2022-11-29T22:39:50.094Z,94729.09
2022-11-29T22:42:16.317Z,94724.53
2022-11-29T22:44:42.553Z,94733.53
2022-11-29T22:47:08.839Z,94734.03
2022-11-29T22:49:35.090Z,94745.81
2022-11-29T22:52:01.343Z,94739.44
2022-11-29T22:54:27.621Z,94740.25
2022-11-29T22:56:53.876Z,94738.94
2022-11-29T22:59:20.134Z,94735.00
2022-11-29T23:01:46.426Z,94734.19
2022-11-29T23:04:12.702Z,94733.72
2022-11-29T23:06:39.113Z,94739.44
2022-11-29T23:09:05.364Z,94735.34
2022-11-29T23:11:31.598Z,94736.00
2022-11-29T23:13:57.825Z,94740.75
2022-11-29T23:16:24.121Z,94736.97
2022-11-29T23:18:50.389Z,94739.28
2022-11-29T23:21:16.615Z,94741.75
2022-11-29T23:23:42.853Z,94739.59
2022-11-29T23:26:09.097Z,94741.91
2022-11-29T23:28:35.353Z,94736.66
2022-11-29T23:31:01.633Z,94734.19
2022-11-29T23:33:27.878Z,94739.28
2022-11-29T23:35:54.130Z,94734.03
2022-11-29T23:38:20.364Z,94731.72
2022-11-29T23:40:46.594Z,94738.94
2022-11-29T23:43:12.859Z,94730.44
2022-11-29T23:45:39.122Z,94729.75
2022-11-29T23:48:05.373Z,94724.38
2022-11-29T23:50:31.614Z,94733.88
2022-11-29T23:52:57.897Z,94732.72
2022-11-29T23:55:24.201Z,94732.53
2022-11-29T23:57:50.431Z,94733.69
